Check out our new PWSWeather beta!
PWSweather.com
Personal Weather Stations
Station Observations
948974
Valtournenche, AostaIT 11028

ValtournencheAostaIT 11028

Lat: 45.877222, Lon: 7.625556

Elevation: 5085.3018

Station Type: PCE-FWS 20

http://www.cdso.it

High Low Average
Temperature 63.1°F17.3°C 46.2°F7.9°C 53.4°F11.9°C
Dew Point 51.4°F10.8°C 33.5°F0.8°C 43.8°F6.6°C
Winds 6.0 mph 9.7 kmh Calm Calm 3.0 mph S4.8 kmh S
Wind Gusts 13.0 mph20.9 kmh 1.0 mph1.6 kmh 5.0 mph8.0 kmh
Humidity 99% 53% 71%
Pressure 30.02 in1016.6 mb 29.74 in1007.1 mb -
Precipitation 0.19 in4.8 mm - -
Hour Temp Dew Point Humidity Winds Wind Gusts Pressure Precip Precip Rate Daily Precip Total
12:01 AM 50.9°F10.5°C 35.8°F2.1°C 56% 2.0 mph NE3.2 kmh NE 3.0 mph4.8 kmh 30.00 in1015.9 mb 0.00 in0.0 mm 0.00 in0.0 mm 0.00 in0.0 mm
12:22 AM 50.5°F10.3°C 35.9°F2.2°C 57% 3.0 mph NE4.8 kmh NE 4.0 mph6.4 kmh 30.01 in1016.3 mb 0.00 in0.0 mm 0.00 in0.0 mm 0.00 in0.0 mm
12:43 AM 50.2°F10.1°C 35.5°F1.9°C 57% 2.0 mph NE3.2 kmh NE 4.0 mph6.4 kmh 30.01 in1016.3 mb 0.00 in0.0 mm 0.00 in0.0 mm 0.00 in0.0 mm
01:04 AM 49.3°F9.6°C 36.0°F2.2°C 60% 3.0 mph NE4.8 kmh NE 4.0 mph6.4 kmh 30.02 in1016.6 mb 0.00 in0.0 mm 0.00 in0.0 mm 0.00 in0.0 mm
01:25 AM 50.0°F10.0°C 34.5°F1.4°C 55% 2.0 mph NE3.2 kmh NE 3.0 mph4.8 kmh 30.01 in1016.3 mb 0.00 in0.0 mm 0.00 in0.0 mm 0.00 in0.0 mm
01:46 AM 50.0°F10.0°C 34.0°F1.1°C 54% 4.0 mph NE6.4 kmh NE 7.0 mph11.3 kmh 30.00 in1015.9 mb 0.00 in0.0 mm 0.00 in0.0 mm 0.00 in0.0 mm
02:07 AM 49.1°F9.5°C 34.1°F1.2°C 56% 2.0 mph NE3.2 kmh NE 4.0 mph6.4 kmh 30.01 in1016.3 mb 0.00 in0.0 mm 0.00 in0.0 mm 0.00 in0.0 mm
02:28 AM 49.6°F9.8°C 34.1°F1.2°C 55% 3.0 mph NE4.8 kmh NE 4.0 mph6.4 kmh 30.00 in1015.9 mb 0.00 in0.0 mm 0.00 in0.0 mm 0.00 in0.0 mm
02:49 AM 48.9°F9.4°C 33.9°F1.1°C 56% 4.0 mph NE6.4 kmh NE 4.0 mph6.4 kmh 30.00 in1015.9 mb 0.00 in0.0 mm 0.00 in0.0 mm 0.00 in0.0 mm
03:10 AM 50.0°F10.0°C 33.5°F0.8°C 53% 5.0 mph NE8.0 kmh NE 8.0 mph12.9 kmh 29.99 in1015.6 mb 0.00 in0.0 mm 0.00 in0.0 mm 0.00 in0.0 mm
03:31 AM 49.8°F9.9°C 33.8°F1.0°C 54% 2.0 mph NE3.2 kmh NE 3.0 mph4.8 kmh 30.00 in1015.9 mb 0.00 in0.0 mm 0.00 in0.0 mm 0.00 in0.0 mm
03:52 AM 48.2°F9.0°C 34.1°F1.2°C 58% 4.0 mph NE6.4 kmh NE 5.0 mph8.0 kmh 30.00 in1015.9 mb 0.00 in0.0 mm 0.00 in0.0 mm 0.00 in0.0 mm
04:13 AM 48.7°F9.3°C 33.8°F1.0°C 56% 2.0 mph NNE3.2 kmh NNE 4.0 mph6.4 kmh 30.00 in1015.9 mb 0.00 in0.0 mm 0.00 in0.0 mm 0.00 in0.0 mm
04:34 AM 49.3°F9.6°C 33.8°F1.0°C 55% 3.0 mph NE4.8 kmh NE 4.0 mph6.4 kmh 29.98 in1015.2 mb 0.00 in0.0 mm 0.00 in0.0 mm 0.00 in0.0 mm
04:55 AM 48.7°F9.3°C 34.2°F1.2°C 57% 2.0 mph NE3.2 kmh NE 3.0 mph4.8 kmh 29.99 in1015.6 mb 0.00 in0.0 mm 0.00 in0.0 mm 0.00 in0.0 mm
05:16 AM 49.6°F9.8°C 33.7°F0.9°C 54% 3.0 mph NE4.8 kmh NE 4.0 mph6.4 kmh 29.98 in1015.2 mb 0.00 in0.0 mm 0.00 in0.0 mm 0.00 in0.0 mm
05:37 AM 48.2°F9.0°C 33.7°F0.9°C 57% 2.0 mph NE3.2 kmh NE 4.0 mph6.4 kmh 30.00 in1015.9 mb 0.00 in0.0 mm 0.00 in0.0 mm 0.00 in0.0 mm
05:58 AM 47.3°F8.5°C 34.1°F1.2°C 60% 2.0 mph NE3.2 kmh NE 3.0 mph4.8 kmh 30.00 in1015.9 mb 0.00 in0.0 mm 0.00 in0.0 mm 0.00 in0.0 mm
06:19 AM 46.9°F8.3°C 34.2°F1.2°C 61% 2.0 mph NE3.2 kmh NE 3.0 mph4.8 kmh 30.01 in1016.3 mb 0.00 in0.0 mm 0.00 in0.0 mm 0.00 in0.0 mm
06:40 AM 46.9°F8.3°C 34.6°F1.4°C 62% 2.0 mph NE3.2 kmh NE 2.0 mph3.2 kmh 30.01 in1016.3 mb 0.00 in0.0 mm 0.00 in0.0 mm 0.00 in0.0 mm
07:01 AM 46.2°F7.9°C 34.7°F1.5°C 64% 4.0 mph NE6.4 kmh NE 4.0 mph6.4 kmh 30.02 in1016.6 mb 0.00 in0.0 mm 0.00 in0.0 mm 0.00 in0.0 mm
07:22 AM 46.9°F8.3°C 35.4°F1.9°C 64% 2.0 mph NE3.2 kmh NE 2.0 mph3.2 kmh 30.01 in1016.3 mb 0.00 in0.0 mm 0.00 in0.0 mm 0.00 in0.0 mm
07:43 AM 46.9°F8.3°C 35.8°F2.1°C 65% 3.0 mph NE4.8 kmh NE 4.0 mph6.4 kmh 30.01 in1016.3 mb 0.00 in0.0 mm 0.00 in0.0 mm 0.00 in0.0 mm
08:04 AM 46.6°F8.1°C 36.2°F2.3°C 67% 2.0 mph NE3.2 kmh NE 2.0 mph3.2 kmh 30.02 in1016.6 mb 0.00 in0.0 mm 0.00 in0.0 mm 0.00 in0.0 mm
08:25 AM 47.5°F8.6°C 36.3°F2.4°C 65% 2.0 mph NE3.2 kmh NE 3.0 mph4.8 kmh 30.01 in1016.3 mb 0.00 in0.0 mm 0.00 in0.0 mm 0.00 in0.0 mm
08:46 AM 51.6°F10.9°C 38.6°F3.7°C 61% 3.0 mph NE4.8 kmh NE 4.0 mph6.4 kmh 29.96 in1014.6 mb 0.00 in0.0 mm 0.00 in0.0 mm 0.00 in0.0 mm
09:07 AM 54.7°F12.6°C 39.3°F4.1°C 56% 2.0 mph NE3.2 kmh NE 3.0 mph4.8 kmh 29.93 in1013.5 mb 0.00 in0.0 mm 0.00 in0.0 mm 0.00 in0.0 mm
09:21 AM 55.3°F12.9°C 39.5°F4.2°C 55% 3.0 mph NE4.8 kmh NE 4.0 mph6.4 kmh 29.93 in1013.5 mb 0.00 in0.0 mm 0.00 in0.0 mm 0.00 in0.0 mm
09:42 AM 58.3°F14.6°C 41.8°F5.4°C 54% 1.0 mph NE1.6 kmh NE 2.0 mph3.2 kmh 29.89 in1012.2 mb 0.00 in0.0 mm 0.00 in0.0 mm 0.00 in0.0 mm
10:03 AM 59.3°F15.2°C 42.5°F5.8°C 54% 2.0 mph NE3.2 kmh NE 4.0 mph6.4 kmh 29.87 in1011.5 mb 0.00 in0.0 mm 0.00 in0.0 mm 0.00 in0.0 mm
10:21 AM 59.3°F15.2°C 43.5°F6.4°C 56% 2.0 mph NE3.2 kmh NE 5.0 mph8.0 kmh 29.87 in1011.5 mb 0.00 in0.0 mm 0.00 in0.0 mm 0.00 in0.0 mm
10:42 AM 59.5°F15.3°C 45.6°F7.6°C 60% 3.0 mph NNE4.8 kmh NNE 5.0 mph8.0 kmh 29.87 in1011.5 mb 0.00 in0.0 mm 0.00 in0.0 mm 0.00 in0.0 mm
11:03 AM 59.3°F15.2°C 47.2°F8.4°C 64% 4.0 mph NW6.4 kmh NW 8.0 mph12.9 kmh 29.86 in1011.2 mb 0.00 in0.0 mm 0.00 in0.0 mm 0.00 in0.0 mm
11:21 AM 59.9°F15.5°C 48.0°F8.9°C 65% 5.0 mph NW8.0 kmh NW 8.0 mph12.9 kmh 29.85 in1010.8 mb 0.00 in0.0 mm 0.00 in0.0 mm 0.00 in0.0 mm
11:42 AM 60.0°F15.6°C 48.6°F9.2°C 66% 5.0 mph NW8.0 kmh NW 10.0 mph16.1 kmh 29.84 in1010.5 mb 0.00 in0.0 mm 0.00 in0.0 mm 0.00 in0.0 mm
12:03 PM 60.7°F15.9°C 49.2°F9.6°C 66% 5.0 mph NW8.0 kmh NW 11.0 mph17.7 kmh 29.83 in1010.2 mb 0.00 in0.0 mm 0.00 in0.0 mm 0.00 in0.0 mm
12:21 PM 61.7°F16.5°C 49.6°F9.8°C 64% 5.0 mph NW8.0 kmh NW 8.0 mph12.9 kmh 29.80 in1009.1 mb 0.00 in0.0 mm 0.00 in0.0 mm 0.00 in0.0 mm
12:42 PM 61.3°F16.3°C 49.1°F9.5°C 64% 4.0 mph NW6.4 kmh NW 8.0 mph12.9 kmh 29.80 in1009.1 mb 0.00 in0.0 mm 0.00 in0.0 mm 0.00 in0.0 mm
01:03 PM 61.8°F16.6°C 49.6°F9.8°C 64% 4.0 mph NW6.4 kmh NW 9.0 mph14.5 kmh 29.78 in1008.5 mb 0.00 in0.0 mm 0.00 in0.0 mm 0.00 in0.0 mm
01:42 PM 62.2°F16.8°C 50.1°F10.1°C 64% 5.0 mph NW8.0 kmh NW 10.0 mph16.1 kmh 29.76 in1007.8 mb 0.00 in0.0 mm 0.00 in0.0 mm 0.00 in0.0 mm
02:03 PM 61.9°F16.6°C 50.7°F10.4°C 67% 6.0 mph NW9.7 kmh NW 12.0 mph19.3 kmh 29.76 in1007.8 mb 0.00 in0.0 mm 0.00 in0.0 mm 0.00 in0.0 mm
02:21 PM 63.1°F17.3°C 50.8°F10.4°C 64% 5.0 mph NW8.0 kmh NW 8.0 mph12.9 kmh 29.74 in1007.1 mb 0.00 in0.0 mm 0.00 in0.0 mm 0.00 in0.0 mm
02:42 PM 62.4°F16.9°C 50.7°F10.4°C 66% 6.0 mph NW9.7 kmh NW 13.0 mph20.9 kmh 29.75 in1007.5 mb 0.00 in0.0 mm 0.00 in0.0 mm 0.00 in0.0 mm
03:03 PM 60.2°F15.7°C 50.8°F10.4°C 71% 4.0 mph NW6.4 kmh NW 8.0 mph12.9 kmh 29.77 in1008.1 mb 0.00 in0.0 mm 0.00 in0.0 mm 0.00 in0.0 mm
03:21 PM 59.3°F15.2°C 51.1°F10.6°C 74% 5.0 mph NW8.0 kmh NW 11.0 mph17.7 kmh 29.77 in1008.1 mb 0.00 in0.0 mm 0.00 in0.0 mm 0.00 in0.0 mm
03:42 PM 59.4°F15.2°C 51.2°F10.7°C 74% 5.0 mph NW8.0 kmh NW 8.0 mph12.9 kmh 29.77 in1008.1 mb 0.00 in0.0 mm 0.00 in0.0 mm 0.00 in0.0 mm
04:03 PM 58.6°F14.8°C 51.1°F10.6°C 76% 4.0 mph NW6.4 kmh NW 8.0 mph12.9 kmh 29.77 in1008.1 mb 0.00 in0.0 mm 0.00 in0.0 mm 0.00 in0.0 mm
04:21 PM 58.0°F14.4°C 51.4°F10.8°C 79% 5.0 mph NW8.0 kmh NW 10.0 mph16.1 kmh 29.77 in1008.1 mb 0.00 in0.0 mm 0.00 in0.0 mm 0.00 in0.0 mm
04:42 PM 57.1°F13.9°C 51.4°F10.8°C 81% 4.0 mph NW6.4 kmh NW 10.0 mph16.1 kmh 29.78 in1008.5 mb 0.00 in0.0 mm 0.00 in0.0 mm 0.00 in0.0 mm
05:03 PM 55.8°F13.2°C 51.3°F10.7°C 85% 3.0 mph NW4.8 kmh NW 8.0 mph12.9 kmh 29.79 in1008.8 mb 0.00 in0.0 mm 0.00 in0.0 mm 0.00 in0.0 mm
05:21 PM 55.4°F13.0°C 51.2°F10.7°C 86% 3.0 mph NW4.8 kmh NW 5.0 mph8.0 kmh 29.80 in1009.1 mb 0.00 in0.0 mm 0.00 in0.0 mm 0.00 in0.0 mm
05:42 PM 55.1°F12.8°C 51.0°F10.6°C 86% 3.0 mph NW4.8 kmh NW 4.0 mph6.4 kmh 29.80 in1009.1 mb 0.00 in0.0 mm 0.00 in0.0 mm 0.00 in0.0 mm
06:03 PM 54.6°F12.6°C 50.8°F10.4°C 87% 2.0 mph NW3.2 kmh NW 4.0 mph6.4 kmh 29.80 in1009.1 mb 0.00 in0.0 mm 0.00 in0.0 mm 0.00 in0.0 mm
06:21 PM 54.2°F12.3°C 50.8°F10.4°C 88% 1.0 mph NW1.6 kmh NW 3.0 mph4.8 kmh 29.80 in1009.1 mb 0.00 in0.0 mm 0.00 in0.0 mm 0.00 in0.0 mm
06:42 PM 54.0°F12.2°C 50.8°F10.4°C 89% 3.0 mph NW4.8 kmh NW 6.0 mph9.7 kmh 29.81 in1009.5 mb 0.00 in0.0 mm 0.00 in0.0 mm 0.00 in0.0 mm
07:03 PM 53.5°F11.9°C 51.1°F10.6°C 92% 2.0 mph NW3.2 kmh NW 8.0 mph12.9 kmh 29.80 in1009.1 mb 0.00 in0.0 mm 0.00 in0.0 mm 0.00 in0.0 mm
07:21 PM 53.1°F11.7°C 51.1°F10.6°C 93% 1.0 mph NW1.6 kmh NW 2.0 mph3.2 kmh 29.80 in1009.1 mb 0.00 in0.0 mm 0.00 in0.0 mm 0.00 in0.0 mm
07:42 PM 52.8°F11.6°C 51.1°F10.6°C 94% 1.0 mph NW1.6 kmh NW 3.0 mph4.8 kmh 29.80 in1009.1 mb 0.00 in0.0 mm 0.00 in0.0 mm 0.00 in0.0 mm
08:21 PM 52.3°F11.3°C 50.9°F10.5°C 95% 2.0 mph NW3.2 kmh NW 4.0 mph6.4 kmh 29.81 in1009.5 mb 0.02 in0.5 mm 0.06 in1.5 mm 0.02 in0.5 mm
08:42 PM 51.8°F11.0°C 50.9°F10.5°C 97% 1.0 mph NW1.6 kmh NW 3.0 mph4.8 kmh 29.81 in1009.5 mb 0.08 in2.0 mm 0.17 in4.3 mm 0.08 in2.0 mm
09:21 PM 50.8°F10.4°C 50.6°F10.3°C 99% 1.0 mph NW1.6 kmh NW 2.0 mph3.2 kmh 29.82 in1009.8 mb 0.07 in1.8 mm 0.00 in0.0 mm 0.09 in2.3 mm
09:42 PM 50.5°F10.3°C 50.2°F10.1°C 99% 2.0 mph NW3.2 kmh NW 4.0 mph6.4 kmh 29.84 in1010.5 mb 0.11 in2.8 mm 0.11 in2.8 mm 0.19 in4.8 mm
10:03 PM 50.0°F10.0°C 49.7°F9.8°C 99% 4.0 mph NW6.4 kmh NW 9.0 mph14.5 kmh 29.84 in1010.5 mb 0.11 in2.8 mm 0.00 in0.0 mm 0.19 in4.8 mm
10:21 PM 49.0°F9.4°C 48.7°F9.3°C 99% 1.0 mph NW1.6 kmh NW 4.0 mph6.4 kmh 29.85 in1010.8 mb 0.09 in2.3 mm 0.00 in0.0 mm 0.19 in4.8 mm
10:42 PM 48.6°F9.2°C 48.3°F9.1°C 99% 2.0 mph NW3.2 kmh NW 4.0 mph6.4 kmh 29.84 in1010.5 mb 0.00 in0.0 mm 0.00 in0.0 mm 0.19 in4.8 mm
11:07 PM 48.0°F8.9°C 47.8°F8.8°C 99% Calm Calm 1.0 mph1.6 kmh 29.83 in1010.2 mb 0.00 in0.0 mm 0.00 in0.0 mm 0.12 in3.0 mm
11:28 PM 47.3°F8.5°C 47.0°F8.3°C 99% Calm Calm 1.0 mph1.6 kmh 29.83 in1010.2 mb 0.00 in0.0 mm 0.00 in0.0 mm 0.12 in3.0 mm
11:49 PM 46.9°F8.3°C 46.7°F8.2°C 99% 2.0 mph NW3.2 kmh NW 2.0 mph3.2 kmh 29.82 in1009.8 mb 0.00 in0.0 mm 0.00 in0.0 mm 0.12 in3.0 mm